Terminal Aerodrome Forecast
Issued by NWS Los Angeles, CA

Home | Current Version | Previous Version | Text Only | Print | Product List | Glossary On
Versions: 1 2 3 4 5 6 7 8 9 10 11 12 13 14 15 16 17 18 19 20 21
000
FTUS46 KLOX 271700
TAFSMX
TAF
KSMX 271721Z 2718/2818 VRB03KT P6SM SKC
     FM272000 31012KT P6SM SKC
     FM280300 VRB03KT P6SM SKC
     FM280900 VRB03KT 1/2SM FG VV001
     FM281600 VRB03KT 4SM BR SCT003=

USA.gov is the U.S. government's official web portal to all federal, state and local government web resources and services.